sensor_id;sensor_type;location;lat;lon;timestamp;temperature;humidity
46336;DHT22;31365;48.858;8.530;2022-11-11T00:00:59;7.50;99.90
46336;DHT22;31365;48.858;8.530;2022-11-11T00:03:46;7.40;99.90
46336;DHT22;31365;48.858;8.530;2022-11-11T00:06:33;7.40;99.90
46336;DHT22;31365;48.858;8.530;2022-11-11T00:09:21;7.30;99.90
46336;DHT22;31365;48.858;8.530;2022-11-11T00:12:10;7.40;99.90
46336;DHT22;31365;48.858;8.530;2022-11-11T00:14:57;7.30;99.90
46336;DHT22;31365;48.858;8.530;2022-11-11T00:17:44;7.30;99.90
46336;DHT22;31365;48.858;8.530;2022-11-11T00:20:49;7.30;99.90
46336;DHT22;31365;48.858;8.530;2022-11-11T00:23:54;7.30;99.90
46336;DHT22;31365;48.858;8.530;2022-11-11T00:27:12;7.40;99.90
46336;DHT22;31365;48.858;8.530;2022-11-11T00:30:02;7.30;99.90
46336;DHT22;31365;48.858;8.530;2022-11-11T00:32:49;7.30;99.90
46336;DHT22;31365;48.858;8.530;2022-11-11T00:35:37;7.40;99.90
46336;DHT22;31365;48.858;8.530;2022-11-11T00:38:40;7.30;99.90
46336;DHT22;31365;48.858;8.530;2022-11-11T00:41:34;7.40;99.90
46336;DHT22;31365;48.858;8.530;2022-11-11T00:44:22;7.50;99.90
46336;DHT22;31365;48.858;8.530;2022-11-11T00:47:10;7.40;99.90
46336;DHT22;31365;48.858;8.530;2022-11-11T00:50:16;7.40;99.90
46336;DHT22;31365;48.858;8.530;2022-11-11T00:53:24;7.30;99.90
46336;DHT22;31365;48.858;8.530;2022-11-11T00:56:13;7.20;99.90
46336;DHT22;31365;48.858;8.530;2022-11-11T00:59:01;7.30;99.90
46336;DHT22;31365;48.858;8.530;2022-11-11T01:01:50;7.50;99.90
46336;DHT22;31365;48.858;8.530;2022-11-11T01:04:37;7.30;99.90
46336;DHT22;31365;48.858;8.530;2022-11-11T01:07:25;7.30;99.90
46336;DHT22;31365;48.858;8.530;2022-11-11T01:10:33;7.30;99.90
46336;DHT22;31365;48.858;8.530;2022-11-11T01:13:30;7.10;99.90
46336;DHT22;31365;48.858;8.530;2022-11-11T01:16:20;7.20;99.90
46336;DHT22;31365;48.858;8.530;2022-11-11T01:19:11;7.10;99.90
46336;DHT22;31365;48.858;8.530;2022-11-11T01:21:59;7.10;99.90
46336;DHT22;31365;48.858;8.530;2022-11-11T01:24:46;7.20;99.90
46336;DHT22;31365;48.858;8.530;2022-11-11T01:27:33;7.20;99.90
46336;DHT22;31365;48.858;8.530;2022-11-11T01:30:20;7.10;99.90
46336;DHT22;31365;48.858;8.530;2022-11-11T01:33:09;7.20;99.90
46336;DHT22;31365;48.858;8.530;2022-11-11T01:36:04;7.00;99.90
46336;DHT22;31365;48.858;8.530;2022-11-11T01:38:54;7.00;99.90
46336;DHT22;31365;48.858;8.530;2022-11-11T01:41:43;7.30;99.90
46336;DHT22;31365;48.858;8.530;2022-11-11T01:44:43;7.10;99.90
46336;DHT22;31365;48.858;8.530;2022-11-11T01:47:32;7.10;99.90
46336;DHT22;31365;48.858;8.530;2022-11-11T01:50:56;7.20;99.90
46336;DHT22;31365;48.858;8.530;2022-11-11T01:53:54;7.40;99.90
46336;DHT22;31365;48.858;8.530;2022-11-11T01:56:49;7.20;99.90
46336;DHT22;31365;48.858;8.530;2022-11-11T01:59:43;7.20;99.90
46336;DHT22;31365;48.858;8.530;2022-11-11T02:02:37;7.20;99.90
46336;DHT22;31365;48.858;8.530;2022-11-11T02:05:27;7.20;99.90
46336;DHT22;31365;48.858;8.530;2022-11-11T02:08:33;7.10;99.90
46336;DHT22;31365;48.858;8.530;2022-11-11T02:11:25;7.10;99.90
46336;DHT22;31365;48.858;8.530;2022-11-11T02:14:36;7.00;99.90
46336;DHT22;31365;48.858;8.530;2022-11-11T02:17:30;6.90;99.90
46336;DHT22;31365;48.858;8.530;2022-11-11T02:20:21;6.90;99.90
46336;DHT22;31365;48.858;8.530;2022-11-11T02:23:14;6.90;99.90
46336;DHT22;31365;48.858;8.530;2022-11-11T02:26:08;7.00;99.90
46336;DHT22;31365;48.858;8.530;2022-11-11T02:29:01;6.80;99.90
46336;DHT22;31365;48.858;8.530;2022-11-11T02:31:51;7.10;99.90
46336;DHT22;31365;48.858;8.530;2022-11-11T02:34:38;6.80;99.90
46336;DHT22;31365;48.858;8.530;2022-11-11T02:37:26;7.10;99.90
46336;DHT22;31365;48.858;8.530;2022-11-11T02:40:15;7.00;99.90
46336;DHT22;31365;48.858;8.530;2022-11-11T02:43:06;6.70;99.90
46336;DHT22;31365;48.858;8.530;2022-11-11T02:45:53;6.70;99.90
46336;DHT22;31365;48.858;8.530;2022-11-11T02:48:41;6.60;99.90
46336;DHT22;31365;48.858;8.530;2022-11-11T02:51:29;6.60;99.90
46336;DHT22;31365;48.858;8.530;2022-11-11T02:54:16;6.60;99.90
46336;DHT22;31365;48.858;8.530;2022-11-11T02:57:03;6.60;99.90
46336;DHT22;31365;48.858;8.530;2022-11-11T02:59:57;6.70;99.90
46336;DHT22;31365;48.858;8.530;2022-11-11T03:02:45;6.70;99.90
46336;DHT22;31365;48.858;8.530;2022-11-11T03:05:33;6.80;99.90
46336;DHT22;31365;48.858;8.530;2022-11-11T03:08:20;6.80;99.90
46336;DHT22;31365;48.858;8.530;2022-11-11T03:11:07;6.80;99.90
46336;DHT22;31365;48.858;8.530;2022-11-11T03:13:55;6.90;99.90
46336;DHT22;31365;48.858;8.530;2022-11-11T03:16:44;6.70;99.90
46336;DHT22;31365;48.858;8.530;2022-11-11T03:19:48;6.80;99.90
46336;DHT22;31365;48.858;8.530;2022-11-11T03:22:36;6.80;99.90
46336;DHT22;31365;48.858;8.530;2022-11-11T03:25:41;6.80;99.90
46336;DHT22;31365;48.858;8.530;2022-11-11T03:28:30;6.80;99.90
46336;DHT22;31365;48.858;8.530;2022-11-11T03:31:17;6.70;99.90
46336;DHT22;31365;48.858;8.530;2022-11-11T03:34:05;6.90;99.90
46336;DHT22;31365;48.858;8.530;2022-11-11T03:37:05;6.70;99.90
46336;DHT22;31365;48.858;8.530;2022-11-11T03:40:11;6.70;99.90
46336;DHT22;31365;48.858;8.530;2022-11-11T03:42:59;6.80;99.90
46336;DHT22;31365;48.858;8.530;2022-11-11T03:45:50;6.80;99.90
46336;DHT22;31365;48.858;8.530;2022-11-11T03:48:38;6.70;99.90
46336;DHT22;31365;48.858;8.530;2022-11-11T03:51:27;6.70;99.90
46336;DHT22;31365;48.858;8.530;2022-11-11T03:54:14;6.60;99.90
46336;DHT22;31365;48.858;8.530;2022-11-11T03:57:01;6.60;99.90
46336;DHT22;31365;48.858;8.530;2022-11-11T04:00:08;6.60;99.90
46336;DHT22;31365;48.858;8.530;2022-11-11T04:03:04;6.60;99.90
46336;DHT22;31365;48.858;8.530;2022-11-11T04:06:10;6.40;99.90
46336;DHT22;31365;48.858;8.530;2022-11-11T04:09:16;6.60;99.90
46336;DHT22;31365;48.858;8.530;2022-11-11T04:12:21;6.40;99.90
46336;DHT22;31365;48.858;8.530;2022-11-11T04:15:10;6.20;99.90
46336;DHT22;31365;48.858;8.530;2022-11-11T04:18:15;6.20;99.90
46336;DHT22;31365;48.858;8.530;2022-11-11T04:21:02;6.20;99.90
46336;DHT22;31365;48.858;8.530;2022-11-11T04:24:08;6.30;99.90
46336;DHT22;31365;48.858;8.530;2022-11-11T04:27:16;6.10;99.90
46336;DHT22;31365;48.858;8.530;2022-11-11T04:30:06;6.10;99.90
46336;DHT22;31365;48.858;8.530;2022-11-11T04:32:53;6.10;99.90
46336;DHT22;31365;48.858;8.530;2022-11-11T04:35:40;6.10;99.90
46336;DHT22;31365;48.858;8.530;2022-11-11T04:38:28;6.20;99.90
46336;DHT22;31365;48.858;8.530;2022-11-11T04:41:33;6.20;99.90
46336;DHT22;31365;48.858;8.530;2022-11-11T04:44:41;6.40;99.90
46336;DHT22;31365;48.858;8.530;2022-11-11T04:47:54;6.20;99.90
46336;DHT22;31365;48.858;8.530;2022-11-11T04:50:43;6.20;99.90
46336;DHT22;31365;48.858;8.530;2022-11-11T04:53:30;6.20;99.90
46336;DHT22;31365;48.858;8.530;2022-11-11T04:56:18;6.20;99.90
46336;DHT22;31365;48.858;8.530;2022-11-11T04:59:23;6.20;99.90
46336;DHT22;31365;48.858;8.530;2022-11-11T05:02:11;6.10;99.90
46336;DHT22;31365;48.858;8.530;2022-11-11T05:05:16;6.20;99.90
46336;DHT22;31365;48.858;8.530;2022-11-11T05:08:03;6.20;99.90
46336;DHT22;31365;48.858;8.530;2022-11-11T05:11:08;6.20;99.90
46336;DHT22;31365;48.858;8.530;2022-11-11T05:13:56;6.20;99.90
46336;DHT22;31365;48.858;8.530;2022-11-11T05:17:03;6.20;99.90
46336;DHT22;31365;48.858;8.530;2022-11-11T05:20:09;6.20;99.90
46336;DHT22;31365;48.858;8.530;2022-11-11T05:23:20;6.20;99.90
46336;DHT22;31365;48.858;8.530;2022-11-11T05:26:27;6.10;99.90
46336;DHT22;31365;48.858;8.530;2022-11-11T05:29:16;6.10;99.90
46336;DHT22;31365;48.858;8.530;2022-11-11T05:32:04;6.00;99.90
46336;DHT22;31365;48.858;8.530;2022-11-11T05:34:53;6.10;99.90
46336;DHT22;31365;48.858;8.530;2022-11-11T05:37:42;6.10;99.90
46336;DHT22;31365;48.858;8.530;2022-11-11T05:40:49;6.10;99.90
46336;DHT22;31365;48.858;8.530;2022-11-11T05:43:37;6.10;99.90
46336;DHT22;31365;48.858;8.530;2022-11-11T05:46:24;6.00;99.90
46336;DHT22;31365;48.858;8.530;2022-11-11T05:49:11;6.10;99.90
46336;DHT22;31365;48.858;8.530;2022-11-11T05:52:02;6.10;99.90
46336;DHT22;31365;48.858;8.530;2022-11-11T05:54:53;6.20;99.90
46336;DHT22;31365;48.858;8.530;2022-11-11T05:57:40;6.10;99.90
46336;DHT22;31365;48.858;8.530;2022-11-11T06:00:27;6.20;99.90
46336;DHT22;31365;48.858;8.530;2022-11-11T06:03:14;6.10;99.90
46336;DHT22;31365;48.858;8.530;2022-11-11T06:06:01;6.10;99.90
46336;DHT22;31365;48.858;8.530;2022-11-11T06:08:48;6.10;99.90
46336;DHT22;31365;48.858;8.530;2022-11-11T06:11:37;6.10;99.90
46336;DHT22;31365;48.858;8.530;2022-11-11T06:14:26;6.20;99.90
46336;DHT22;31365;48.858;8.530;2022-11-11T06:17:14;6.30;99.90
46336;DHT22;31365;48.858;8.530;2022-11-11T06:20:03;6.20;99.90
46336;DHT22;31365;48.858;8.530;2022-11-11T06:22:51;6.10;99.90
46336;DHT22;31365;48.858;8.530;2022-11-11T06:25:44;6.10;99.90
46336;DHT22;31365;48.858;8.530;2022-11-11T06:28:51;6.10;99.90
46336;DHT22;31365;48.858;8.530;2022-11-11T06:31:40;6.20;99.90
46336;DHT22;31365;48.858;8.530;2022-11-11T06:34:27;6.20;99.90
46336;DHT22;31365;48.858;8.530;2022-11-11T06:37:15;6.20;99.90
46336;DHT22;31365;48.858;8.530;2022-11-11T06:40:02;6.20;99.90
46336;DHT22;31365;48.858;8.530;2022-11-11T06:42:49;6.20;99.90
46336;DHT22;31365;48.858;8.530;2022-11-11T06:45:38;6.30;99.90
46336;DHT22;31365;48.858;8.530;2022-11-11T06:48:27;6.20;99.90
46336;DHT22;31365;48.858;8.530;2022-11-11T06:51:14;6.30;99.90
46336;DHT22;31365;48.858;8.530;2022-11-11T06:54:02;6.30;99.90
46336;DHT22;31365;48.858;8.530;2022-11-11T06:56:49;6.40;99.90
46336;DHT22;31365;48.858;8.530;2022-11-11T07:09:20;6.50;99.90
46336;DHT22;31365;48.858;8.530;2022-11-11T07:12:09;6.50;99.90
46336;DHT22;31365;48.858;8.530;2022-11-11T07:14:56;6.60;99.90
46336;DHT22;31365;48.858;8.530;2022-11-11T07:17:43;6.70;99.90
46336;DHT22;31365;48.858;8.530;2022-11-11T07:20:31;6.80;99.90
46336;DHT22;31365;48.858;8.530;2022-11-11T07:23:17;6.70;99.90
46336;DHT22;31365;48.858;8.530;2022-11-11T07:26:06;6.80;99.90
46336;DHT22;31365;48.858;8.530;2022-11-11T07:28:53;6.80;99.90
46336;DHT22;31365;48.858;8.530;2022-11-11T07:31:40;6.80;99.90
46336;DHT22;31365;48.858;8.530;2022-11-11T07:34:28;6.90;99.90
46336;DHT22;31365;48.858;8.530;2022-11-11T07:37:15;7.20;99.90
46336;DHT22;31365;48.858;8.530;2022-11-11T07:40:03;7.10;99.90
46336;DHT22;31365;48.858;8.530;2022-11-11T07:42:53;7.20;99.90
46336;DHT22;31365;48.858;8.530;2022-11-11T07:45:42;7.70;99.90
46336;DHT22;31365;48.858;8.530;2022-11-11T07:48:29;7.40;99.90
46336;DHT22;31365;48.858;8.530;2022-11-11T07:51:16;7.50;99.90
46336;DHT22;31365;48.858;8.530;2022-11-11T07:54:04;7.80;99.90
46336;DHT22;31365;48.858;8.530;2022-11-11T07:56:51;7.80;99.90
46336;DHT22;31365;48.858;8.530;2022-11-11T07:59:40;7.80;99.90
46336;DHT22;31365;48.858;8.530;2022-11-11T08:02:27;7.90;99.90
46336;DHT22;31365;48.858;8.530;2022-11-11T08:05:15;7.90;99.90
46336;DHT22;31365;48.858;8.530;2022-11-11T08:08:03;8.10;99.90
46336;DHT22;31365;48.858;8.530;2022-11-11T08:10:53;8.10;99.90
46336;DHT22;31365;48.858;8.530;2022-11-11T08:13:42;8.30;99.90
46336;DHT22;31365;48.858;8.530;2022-11-11T08:16:30;8.30;99.90
46336;DHT22;31365;48.858;8.530;2022-11-11T08:19:17;8.50;99.90
46336;DHT22;31365;48.858;8.530;2022-11-11T08:22:03;8.60;99.90
46336;DHT22;31365;48.858;8.530;2022-11-11T08:24:51;8.70;99.90
46336;DHT22;31365;48.858;8.530;2022-11-11T08:27:48;8.80;99.90
46336;DHT22;31365;48.858;8.530;2022-11-11T08:30:36;8.90;99.90
46336;DHT22;31365;48.858;8.530;2022-11-11T08:33:24;9.00;99.90
46336;DHT22;31365;48.858;8.530;2022-11-11T08:36:18;9.10;99.90
46336;DHT22;31365;48.858;8.530;2022-11-11T08:39:08;9.30;99.90
46336;DHT22;31365;48.858;8.530;2022-11-11T08:41:56;9.30;99.90
46336;DHT22;31365;48.858;8.530;2022-11-11T08:44:43;9.30;99.90
46336;DHT22;31365;48.858;8.530;2022-11-11T08:47:31;9.40;99.90
46336;DHT22;31365;48.858;8.530;2022-11-11T08:50:20;9.50;99.90
46336;DHT22;31365;48.858;8.530;2022-11-11T08:53:08;9.60;99.90
46336;DHT22;31365;48.858;8.530;2022-11-11T08:55:56;9.50;99.90
46336;DHT22;31365;48.858;8.530;2022-11-11T08:58:43;9.60;99.90
46336;DHT22;31365;48.858;8.530;2022-11-11T09:01:30;9.70;99.90
46336;DHT22;31365;48.858;8.530;2022-11-11T09:04:17;9.80;99.90
46336;DHT22;31365;48.858;8.530;2022-11-11T09:07:26;9.80;99.90
46336;DHT22;31365;48.858;8.530;2022-11-11T09:10:13;9.90;99.90
46336;DHT22;31365;48.858;8.530;2022-11-11T09:13:01;9.90;99.90
46336;DHT22;31365;48.858;8.530;2022-11-11T09:15:48;10.00;99.90
46336;DHT22;31365;48.858;8.530;2022-11-11T09:18:35;10.10;99.90
46336;DHT22;31365;48.858;8.530;2022-11-11T09:21:23;10.20;99.90
46336;DHT22;31365;48.858;8.530;2022-11-11T09:24:11;10.40;99.90
46336;DHT22;31365;48.858;8.530;2022-11-11T09:26:58;10.40;99.90
46336;DHT22;31365;48.858;8.530;2022-11-11T09:29:46;10.60;99.90
46336;DHT22;31365;48.858;8.530;2022-11-11T09:32:33;10.70;99.90
46336;DHT22;31365;48.858;8.530;2022-11-11T09:35:20;10.90;99.90
46336;DHT22;31365;48.858;8.530;2022-11-11T09:38:08;11.00;99.90
46336;DHT22;31365;48.858;8.530;2022-11-11T09:41:12;11.20;99.90
46336;DHT22;31365;48.858;8.530;2022-11-11T09:44:03;11.30;99.90
46336;DHT22;31365;48.858;8.530;2022-11-11T09:46:55;11.50;99.90
46336;DHT22;31365;48.858;8.530;2022-11-11T09:49:58;11.80;99.90
46336;DHT22;31365;48.858;8.530;2022-11-11T09:52:52;11.90;99.90
46336;DHT22;31365;48.858;8.530;2022-11-11T09:55:51;12.20;99.90
46336;DHT22;31365;48.858;8.530;2022-11-11T09:58:45;12.40;99.90
46336;DHT22;31365;48.858;8.530;2022-11-11T10:01:39;12.70;99.90
46336;DHT22;31365;48.858;8.530;2022-11-11T10:04:33;13.00;99.90
46336;DHT22;31365;48.858;8.530;2022-11-11T10:07:33;13.40;99.90
46336;DHT22;31365;48.858;8.530;2022-11-11T10:10:32;13.80;99.90
46336;DHT22;31365;48.858;8.530;2022-11-11T10:13:29;14.20;99.90
46336;DHT22;31365;48.858;8.530;2022-11-11T10:16:25;14.50;99.90
46336;DHT22;31365;48.858;8.530;2022-11-11T10:19:27;14.70;99.90
46336;DHT22;31365;48.858;8.530;2022-11-11T10:22:20;15.00;99.90
46336;DHT22;31365;48.858;8.530;2022-11-11T10:25:19;15.20;99.90
46336;DHT22;31365;48.858;8.530;2022-11-11T10:28:10;15.60;99.90
46336;DHT22;31365;48.858;8.530;2022-11-11T10:31:04;15.70;99.90
46336;DHT22;31365;48.858;8.530;2022-11-11T10:34:02;15.80;99.90
46336;DHT22;31365;48.858;8.530;2022-11-11T10:36:56;15.80;99.90
46336;DHT22;31365;48.858;8.530;2022-11-11T10:39:59;15.80;99.90
46336;DHT22;31365;48.858;8.530;2022-11-11T10:42:55;15.80;99.90
46336;DHT22;31365;48.858;8.530;2022-11-11T10:45:48;15.70;99.90
46336;DHT22;31365;48.858;8.530;2022-11-11T10:48:50;15.80;99.90
46336;DHT22;31365;48.858;8.530;2022-11-11T10:51:46;15.60;99.90
46336;DHT22;31365;48.858;8.530;2022-11-11T10:54:40;15.60;99.90
46336;DHT22;31365;48.858;8.530;2022-11-11T10:57:38;15.80;99.90
46336;DHT22;31365;48.858;8.530;2022-11-11T11:00:31;15.80;99.90
46336;DHT22;31365;48.858;8.530;2022-11-11T11:03:32;16.00;99.90
46336;DHT22;31365;48.858;8.530;2022-11-11T11:06:25;15.90;99.90
46336;DHT22;31365;48.858;8.530;2022-11-11T11:09:20;15.60;99.90
46336;DHT22;31365;48.858;8.530;2022-11-11T11:12:14;15.60;99.90
46336;DHT22;31365;48.858;8.530;2022-11-11T11:15:10;15.70;99.90
46336;DHT22;31365;48.858;8.530;2022-11-11T11:18:04;15.90;99.90
46336;DHT22;31365;48.858;8.530;2022-11-11T11:20:55;16.60;99.90
46336;DHT22;31365;48.858;8.530;2022-11-11T11:23:45;17.40;99.90
46336;DHT22;31365;48.858;8.530;2022-11-11T11:26:44;17.90;99.90
46336;DHT22;31365;48.858;8.530;2022-11-11T11:29:35;18.10;99.90
46336;DHT22;31365;48.858;8.530;2022-11-11T11:32:27;18.20;99.90
46336;DHT22;31365;48.858;8.530;2022-11-11T11:35:30;17.90;99.90
46336;DHT22;31365;48.858;8.530;2022-11-11T11:38:39;18.60;99.90
46336;DHT22;31365;48.858;8.530;2022-11-11T11:41:38;19.40;99.90
46336;DHT22;31365;48.858;8.530;2022-11-11T11:44:29;19.80;99.90
46336;DHT22;31365;48.858;8.530;2022-11-11T11:47:28;19.90;99.90
46336;DHT22;31365;48.858;8.530;2022-11-11T11:50:37;20.20;99.90
46336;DHT22;31365;48.858;8.530;2022-11-11T11:53:35;20.00;99.90
46336;DHT22;31365;48.858;8.530;2022-11-11T11:56:36;19.80;99.90
46336;DHT22;31365;48.858;8.530;2022-11-11T11:59:32;19.80;99.90
46336;DHT22;31365;48.858;8.530;2022-11-11T12:02:42;19.70;99.90
46336;DHT22;31365;48.858;8.530;2022-11-11T12:05:55;19.30;99.90
46336;DHT22;31365;48.858;8.530;2022-11-11T12:08:59;19.70;99.90
46336;DHT22;31365;48.858;8.530;2022-11-11T12:11:58;20.20;99.90
46336;DHT22;31365;48.858;8.530;2022-11-11T12:15:03;20.30;99.90
46336;DHT22;31365;48.858;8.530;2022-11-11T12:18:30;20.10;99.90
46336;DHT22;31365;48.858;8.530;2022-11-11T12:21:36;19.60;99.90
46336;DHT22;31365;48.858;8.530;2022-11-11T12:24:37;18.70;99.90
46336;DHT22;31365;48.858;8.530;2022-11-11T12:27:38;17.80;99.90
46336;DHT22;31365;48.858;8.530;2022-11-11T12:30:43;17.00;99.90
46336;DHT22;31365;48.858;8.530;2022-11-11T12:34:04;16.40;99.90
46336;DHT22;31365;48.858;8.530;2022-11-11T12:37:09;16.10;99.90
46336;DHT22;31365;48.858;8.530;2022-11-11T12:40:18;15.60;99.90
46336;DHT22;31365;48.858;8.530;2022-11-11T12:43:19;15.40;99.90
46336;DHT22;31365;48.858;8.530;2022-11-11T12:46:18;15.20;99.90
46336;DHT22;31365;48.858;8.530;2022-11-11T12:52:44;15.00;99.90
46336;DHT22;31365;48.858;8.530;2022-11-11T12:55:56;14.90;99.90
46336;DHT22;31365;48.858;8.530;2022-11-11T12:58:56;14.90;99.90
46336;DHT22;31365;48.858;8.530;2022-11-11T13:01:56;14.90;99.90
46336;DHT22;31365;48.858;8.530;2022-11-11T13:05:03;14.90;99.90
46336;DHT22;31365;48.858;8.530;2022-11-11T13:08:10;14.90;99.90
46336;DHT22;31365;48.858;8.530;2022-11-11T13:11:13;14.90;99.90
46336;DHT22;31365;48.858;8.530;2022-11-11T13:14:29;14.90;99.90
46336;DHT22;31365;48.858;8.530;2022-11-11T13:17:27;14.90;99.90
46336;DHT22;31365;48.858;8.530;2022-11-11T13:20:28;14.90;99.90
46336;DHT22;31365;48.858;8.530;2022-11-11T13:23:28;14.90;99.90
46336;DHT22;31365;48.858;8.530;2022-11-11T13:26:26;14.80;99.90
46336;DHT22;31365;48.858;8.530;2022-11-11T13:29:37;14.70;99.90
46336;DHT22;31365;48.858;8.530;2022-11-11T13:32:43;14.80;99.90
46336;DHT22;31365;48.858;8.530;2022-11-11T13:35:37;14.70;99.90
46336;DHT22;31365;48.858;8.530;2022-11-11T13:38:33;14.80;99.90
46336;DHT22;31365;48.858;8.530;2022-11-11T13:41:24;14.60;99.90
46336;DHT22;31365;48.858;8.530;2022-11-11T13:44:19;14.50;99.90
46336;DHT22;31365;48.858;8.530;2022-11-11T13:47:17;14.30;99.90
46336;DHT22;31365;48.858;8.530;2022-11-11T13:50:12;14.30;99.90
46336;DHT22;31365;48.858;8.530;2022-11-11T13:53:13;14.20;99.90
46336;DHT22;31365;48.858;8.530;2022-11-11T13:56:12;14.20;99.90
46336;DHT22;31365;48.858;8.530;2022-11-11T13:59:20;14.00;99.90
46336;DHT22;31365;48.858;8.530;2022-11-11T14:02:26;14.00;99.90
46336;DHT22;31365;48.858;8.530;2022-11-11T14:05:21;13.90;99.90
46336;DHT22;31365;48.858;8.530;2022-11-11T14:08:52;14.00;99.90
46336;DHT22;31365;48.858;8.530;2022-11-11T14:11:40;14.10;99.90
46336;DHT22;31365;48.858;8.530;2022-11-11T14:14:55;14.10;99.90
46336;DHT22;31365;48.858;8.530;2022-11-11T14:17:43;14.20;99.90
46336;DHT22;31365;48.858;8.530;2022-11-11T14:20:48;14.10;99.90
46336;DHT22;31365;48.858;8.530;2022-11-11T14:23:38;14.00;99.90
46336;DHT22;31365;48.858;8.530;2022-11-11T14:26:27;13.90;99.90
46336;DHT22;31365;48.858;8.530;2022-11-11T14:29:17;13.90;99.90
46336;DHT22;31365;48.858;8.530;2022-11-11T14:32:32;13.80;99.90
46336;DHT22;31365;48.858;8.530;2022-11-11T14:35:35;13.90;99.90
46336;DHT22;31365;48.858;8.530;2022-11-11T14:38:41;13.90;99.90
46336;DHT22;31365;48.858;8.530;2022-11-11T14:41:44;13.70;99.90
46336;DHT22;31365;48.858;8.530;2022-11-11T14:44:41;13.70;99.90
46336;DHT22;31365;48.858;8.530;2022-11-11T14:47:33;13.60;99.90
46336;DHT22;31365;48.858;8.530;2022-11-11T14:50:43;13.60;99.90
46336;DHT22;31365;48.858;8.530;2022-11-11T14:53:35;13.60;99.90
46336;DHT22;31365;48.858;8.530;2022-11-11T14:56:26;13.50;99.90
46336;DHT22;31365;48.858;8.530;2022-11-11T14:59:16;13.50;99.90
46336;DHT22;31365;48.858;8.530;2022-11-11T15:02:17;13.40;99.90
46336;DHT22;31365;48.858;8.530;2022-11-11T15:05:16;13.40;99.90
46336;DHT22;31365;48.858;8.530;2022-11-11T15:08:15;13.30;99.90
46336;DHT22;31365;48.858;8.530;2022-11-11T15:11:17;13.20;99.90
46336;DHT22;31365;48.858;8.530;2022-11-11T15:14:23;13.00;99.90
46336;DHT22;31365;48.858;8.530;2022-11-11T15:17:25;12.80;99.90
46336;DHT22;31365;48.858;8.530;2022-11-11T15:20:40;12.60;99.90
46336;DHT22;31365;48.858;8.530;2022-11-11T15:23:41;12.40;99.90
46336;DHT22;31365;48.858;8.530;2022-11-11T15:26:42;12.30;99.90
46336;DHT22;31365;48.858;8.530;2022-11-11T15:29:49;12.10;99.90
46336;DHT22;31365;48.858;8.530;2022-11-11T15:32:57;11.90;99.90
46336;DHT22;31365;48.858;8.530;2022-11-11T15:35:56;11.90;99.90
46336;DHT22;31365;48.858;8.530;2022-11-11T15:38:58;11.70;99.90
46336;DHT22;31365;48.858;8.530;2022-11-11T15:41:50;11.60;99.90
46336;DHT22;31365;48.858;8.530;2022-11-11T15:44:38;11.40;99.90
46336;DHT22;31365;48.858;8.530;2022-11-11T15:47:27;11.40;99.90
46336;DHT22;31365;48.858;8.530;2022-11-11T15:50:29;11.20;99.90
46336;DHT22;31365;48.858;8.530;2022-11-11T15:53:22;11.00;99.90
46336;DHT22;31365;48.858;8.530;2022-11-11T15:56:30;10.90;99.90
46336;DHT22;31365;48.858;8.530;2022-11-11T15:59:21;10.80;99.90
46336;DHT22;31365;48.858;8.530;2022-11-11T16:02:15;10.60;99.90
46336;DHT22;31365;48.858;8.530;2022-11-11T16:05:15;10.60;99.90
46336;DHT22;31365;48.858;8.530;2022-11-11T16:08:08;10.50;99.90
46336;DHT22;31365;48.858;8.530;2022-11-11T16:11:00;10.40;99.90
46336;DHT22;31365;48.858;8.530;2022-11-11T16:13:53;10.20;99.90
46336;DHT22;31365;48.858;8.530;2022-11-11T16:16:53;10.50;99.90
46336;DHT22;31365;48.858;8.530;2022-11-11T16:19:45;10.20;99.90
46336;DHT22;31365;48.858;8.530;2022-11-11T16:22:36;10.00;99.90
46336;DHT22;31365;48.858;8.530;2022-11-11T16:25:26;9.90;99.90
46336;DHT22;31365;48.858;8.530;2022-11-11T16:28:15;9.90;99.90
46336;DHT22;31365;48.858;8.530;2022-11-11T16:31:28;9.70;99.90
46336;DHT22;31365;48.858;8.530;2022-11-11T16:34:33;9.60;99.90
46336;DHT22;31365;48.858;8.530;2022-11-11T16:37:21;9.50;99.90
46336;DHT22;31365;48.858;8.530;2022-11-11T16:40:35;9.40;99.90
46336;DHT22;31365;48.858;8.530;2022-11-11T16:43:30;9.40;99.90
46336;DHT22;31365;48.858;8.530;2022-11-11T16:46:40;9.30;99.90
46336;DHT22;31365;48.858;8.530;2022-11-11T16:49:30;9.20;99.90
46336;DHT22;31365;48.858;8.530;2022-11-11T16:52:23;9.00;99.90
46336;DHT22;31365;48.858;8.530;2022-11-11T16:55:18;9.10;99.90
46336;DHT22;31365;48.858;8.530;2022-11-11T16:58:12;9.10;99.90
46336;DHT22;31365;48.858;8.530;2022-11-11T17:01:02;9.00;99.90
46336;DHT22;31365;48.858;8.530;2022-11-11T17:03:55;8.80;99.90
46336;DHT22;31365;48.858;8.530;2022-11-11T17:06:50;8.70;99.90
46336;DHT22;31365;48.858;8.530;2022-11-11T17:09:41;8.60;99.90
46336;DHT22;31365;48.858;8.530;2022-11-11T17:12:29;8.50;99.90
46336;DHT22;31365;48.858;8.530;2022-11-11T17:15:18;8.60;99.90
46336;DHT22;31365;48.858;8.530;2022-11-11T17:18:07;8.40;99.90
46336;DHT22;31365;48.858;8.530;2022-11-11T17:20:56;8.40;99.90
46336;DHT22;31365;48.858;8.530;2022-11-11T17:23:44;8.60;99.90
46336;DHT22;31365;48.858;8.530;2022-11-11T17:26:31;8.30;99.90
46336;DHT22;31365;48.858;8.530;2022-11-11T17:29:19;8.30;99.90
46336;DHT22;31365;48.858;8.530;2022-11-11T17:32:06;8.30;99.90
46336;DHT22;31365;48.858;8.530;2022-11-11T17:34:53;8.20;99.90
46336;DHT22;31365;48.858;8.530;2022-11-11T17:37:42;8.40;99.90
46336;DHT22;31365;48.858;8.530;2022-11-11T17:40:29;8.20;99.90
46336;DHT22;31365;48.858;8.530;2022-11-11T17:43:17;8.00;99.90
46336;DHT22;31365;48.858;8.530;2022-11-11T17:46:05;8.00;99.90
46336;DHT22;31365;48.858;8.530;2022-11-11T17:48:53;8.00;99.90
46336;DHT22;31365;48.858;8.530;2022-11-11T17:51:40;8.10;99.90
46336;DHT22;31365;48.858;8.530;2022-11-11T17:54:30;8.00;99.90
46336;DHT22;31365;48.858;8.530;2022-11-11T17:57:17;8.00;99.90
46336;DHT22;31365;48.858;8.530;2022-11-11T18:00:06;8.00;99.90
46336;DHT22;31365;48.858;8.530;2022-11-11T18:02:55;7.90;99.90
46336;DHT22;31365;48.858;8.530;2022-11-11T18:05:42;7.80;99.90
46336;DHT22;31365;48.858;8.530;2022-11-11T18:08:29;8.30;99.90
46336;DHT22;31365;48.858;8.530;2022-11-11T18:11:19;7.70;99.90
46336;DHT22;31365;48.858;8.530;2022-11-11T18:14:06;7.70;99.90
46336;DHT22;31365;48.858;8.530;2022-11-11T18:16:54;7.90;99.90
46336;DHT22;31365;48.858;8.530;2022-11-11T18:19:41;7.60;99.90
46336;DHT22;31365;48.858;8.530;2022-11-11T18:22:35;7.50;99.90
46336;DHT22;31365;48.858;8.530;2022-11-11T18:25:23;7.60;99.90
46336;DHT22;31365;48.858;8.530;2022-11-11T18:28:13;7.50;99.90
46336;DHT22;31365;48.858;8.530;2022-11-11T18:31:05;7.50;99.90
46336;DHT22;31365;48.858;8.530;2022-11-11T18:33:53;7.50;99.90
46336;DHT22;31365;48.858;8.530;2022-11-11T18:36:40;7.70;99.90
46336;DHT22;31365;48.858;8.530;2022-11-11T18:39:27;7.30;99.90
46336;DHT22;31365;48.858;8.530;2022-11-11T18:42:15;7.70;99.90
46336;DHT22;31365;48.858;8.530;2022-11-11T18:45:05;7.40;99.90